EGWU

RAF Northolt Airport

London, United Kingdom
METAR EGWU 190450Z AUTO 21007KT 9999 // FEW016/// SCT049/// 16/15 Q1011
Observed Flight Rules
Sep-19 @ 04:50 UTC (41 minutes ago) Visual Flight Rules
Wind Visibility Clouds
210° at 7 knots 10,000+ meters
  • Few at 1,600' AGL
  • Scattered at 4,900' AGL
Temperatures Readings
Current 16°C / 61°F
Dewpoint 15°C / 59°F
Humidity 94%
Altimeter 29.85" Hg
Pressure 1011 hPa
Elevation 40
METAR EGWU 190450Z AUTO 21007KT 9999 // FEW016/// SCT049/// 16/15 Q1011
Observed Flight Rules
Sep-19 @ 04:50 UTC
(41 minutes ago)
VFR
Wind Visibility
210° at 7 knots 10,000+ meters
Clouds
  • Few at 1,600' AGL
  • Scattered at 4,900' AGL
Temperature Dewpoint
16°C / 61°F 15°C / 59°F
Humidity Altimeter Pressure
94% 29.85" Hg 1011 hPa